Time;durP1;ratioP1;P1;durP2;ratioP2;P2;SDS_P1;SDS_P2;PMS_P1;PMS_P2;Temp;Humidity;BMP_temperature;BMP_pressure;BME280_temperature;BME280_humidity;BME280_pressure;Samples;Min_cycle;Max_cycle;Signal;HPM_P1;HPM_P2
2022/03/10 00:01:04;;;;;;;13.60;10.20;;;;;;;-0.27;66.25;101630.03;4992477;28;20053;-63
2022/03/10 00:04:08;;;;;;;14.57;10.23;;;;;;;-0.34;66.13;101635.09;4992180;28;20151;-63
2022/03/10 00:07:11;;;;;;;;;;;;;;;-0.50;66.53;101642.63;4992672;28;20096;-63
2022/03/10 00:10:15;;;;;;;15.88;10.70;;;;;;;-0.61;67.08;101643.34;4991849;28;20382;-63
2022/03/10 00:13:17;;;;;;;15.27;10.40;;;;;;;-0.33;66.08;101632.53;4991229;28;20098;-63
2022/03/10 00:16:21;;;;;;;14.15;10.30;;;;;;;-0.30;65.84;101624.00;4991541;28;20670;-63
2022/03/10 00:19:25;;;;;;;17.85;10.60;;;;;;;-0.37;65.25;101623.06;4991334;28;20758;-63
2022/03/10 00:22:28;;;;;;;17.10;10.85;;;;;;;-0.56;65.79;101628.84;4991022;28;20462;-63
2022/03/10 00:25:33;;;;;;;17.73;10.93;;;;;;;-0.75;66.79;101625.22;4991526;28;20084;-63
2022/03/10 00:28:36;;;;;;;15.10;11.52;;;;;;;-0.56;66.09;101634.00;4644682;28;9999809;-63
2022/03/10 00:31:40;;;;;;;;;;;;;;;-0.53;66.03;101632.31;4989455;28;20081;-63
2022/03/10 00:34:43;;;;;;;15.63;11.77;;;;;;;-0.64;66.50;101633.03;4989112;28;19924;-63
2022/03/10 00:37:47;;;;;;;;;;;;;;;-0.57;66.59;101633.13;4989242;28;20424;-63
2022/03/10 00:40:52;;;;;;;15.20;10.43;;;;;;;-0.74;67.00;101638.06;4988686;28;19924;-63
2022/03/10 00:43:55;;;;;;;;;;;;;;;-0.86;67.96;101637.03;4989050;28;20796;-63
2022/03/10 00:46:58;;;;;;;12.77;8.75;;;;;;;-0.85;67.49;101639.66;4989272;28;19968;-63
2022/03/10 00:50:03;;;;;;;11.60;8.18;;;;;;;-0.82;67.15;101633.69;4988613;28;20136;-63
2022/03/10 00:53:06;;;;;;;16.38;11.57;;;;;;;-0.86;67.49;101634.47;4988454;28;20531;-63
2022/03/10 00:56:09;;;;;;;21.77;10.52;;;;;;;-0.98;67.44;101638.63;4988507;28;20053;-63
2022/03/10 00:59:13;;;;;;;19.13;11.98;;;;;;;-0.92;67.31;101637.84;4990310;28;20555;-63
2022/03/10 01:02:16;;;;;;;15.50;10.90;;;;;;;-1.04;68.09;101642.81;4992077;28;20084;-63
2022/03/10 01:05:19;;;;;;;16.73;11.77;;;;;;;-1.05;68.22;101653.94;4992303;28;20112;-63
2022/03/10 01:08:23;;;;;;;19.20;11.73;;;;;;;-0.91;67.66;101652.41;4992513;28;20061;-63
2022/03/10 01:11:26;;;;;;;16.65;12.55;;;;;;;-1.11;67.79;101654.72;4992235;28;20517;-63
2022/03/10 01:14:29;;;;;;;16.75;11.82;;;;;;;-1.09;67.66;101657.28;4992271;28;20061;-63
2022/03/10 01:17:32;;;;;;;16.33;11.75;;;;;;;-1.19;68.11;101657.16;4992183;28;20092;-63
2022/03/10 01:20:36;;;;;;;;;;;;;;;-0.92;67.09;101658.41;4992225;28;20057;-63
2022/03/10 01:23:39;;;;;;;21.10;12.27;;;;;;;-1.02;67.48;101666.78;4991807;28;19977;-63
2022/03/10 01:26:42;;;;;;;16.15;11.60;;;;;;;-0.98;67.32;101656.59;4992722;28;20112;-63
2022/03/10 01:29:46;;;;;;;;;;;;;;;-1.09;67.85;101665.84;5012342;28;20061;-63
2022/03/10 01:32:49;;;;;;;18.45;12.20;;;;;;;-1.27;67.64;101653.66;5011116;28;19975;-63
2022/03/10 01:35:53;;;;;;;16.83;12.55;;;;;;;-1.28;68.21;101659.59;5010843;28;20053;-66
2022/03/10 01:38:56;;;;;;;15.07;11.48;;;;;;;-1.38;68.51;101657.75;5010847;28;20546;-63
2022/03/10 01:42:00;;;;;;;;;;;;;;;-1.22;68.04;101658.81;5011532;28;20675;-63
2022/03/10 01:45:05;;;;;;;15.70;10.98;;;;;;;-1.21;67.87;101663.13;5010785;28;19924;-63
2022/03/10 01:48:08;;;;;;;16.77;11.70;;;;;;;-1.06;67.45;101665.03;5011271;28;20099;-63
2022/03/10 01:51:12;;;;;;;17.42;11.75;;;;;;;-1.18;67.33;101666.59;5010392;28;20083;-63
2022/03/10 01:54:16;;;;;;;15.50;11.75;;;;;;;-1.31;67.83;101666.38;5010804;28;20048;-63
2022/03/10 01:57:19;;;;;;;24.60;12.57;;;;;;;-1.22;67.88;101669.94;5010886;28;20056;-63
2022/03/10 02:00:23;;;;;;;19.40;11.23;;;;;;;-1.37;68.16;101664.63;5010844;28;20048;-63
2022/03/10 02:03:26;;;;;;;20.65;13.77;;;;;;;-1.47;68.60;101670.41;5009995;28;20123;-63
2022/03/10 02:06:30;;;;;;;17.17;11.32;;;;;;;-1.55;69.04;101670.31;5010921;28;20104;-63
2022/03/10 02:12:56;;;;;;;17.87;12.43;;;;;;;-1.41;68.71;101660.25;5010191;28;20089;-63
2022/03/10 02:19:21;;;;;;;15.80;11.70;;;;;;;-1.62;69.58;101662.50;5010676;28;20088;-63
2022/03/10 02:22:26;;;;;;;18.48;11.20;;;;;;;-1.60;69.61;101655.69;5010661;28;20056;-63
2022/03/10 02:30:37;;;;;;;17.00;12.17;;;;;;;-1.80;70.43;101658.78;4971239;28;20049;-63
2022/03/10 02:33:41;;;;;;;19.30;12.93;;;;;;;-1.80;70.13;101670.75;4971019;28;20117;-63
2022/03/10 02:36:45;;;;;;;18.63;11.97;;;;;;;-1.79;70.21;101659.66;4971240;28;20078;-63
2022/03/10 02:39:48;;;;;;;;;;;;;;;-1.75;70.08;101659.75;4971759;28;20049;-63
2022/03/10 02:42:52;;;;;;;15.75;9.63;;;;;;;-1.81;69.94;101658.78;4971129;28;19969;-63
2022/03/10 02:45:55;;;;;;;16.03;12.43;;;;;;;-1.78;69.68;101656.28;4972801;28;20193;-63
2022/03/10 02:49:00;;;;;;;19.45;12.05;;;;;;;-1.88;70.27;101665.50;4973395;28;20092;-63
2022/03/10 02:52:04;;;;;;;18.33;12.67;;;;;;;-1.85;70.34;101667.25;4961827;28;20041;-63
2022/03/10 02:55:08;;;;;;;18.63;11.93;;;;;;;-1.62;69.73;101653.13;4974087;28;20104;-63
2022/03/10 02:58:11;;;;;;;16.97;12.83;;;;;;;-1.61;69.65;101661.66;4973914;28;20045;-63
2022/03/10 03:01:15;;;;;;;15.45;11.82;;;;;;;-1.75;69.27;101651.19;4973872;28;20050;-63
2022/03/10 03:04:18;;;;;;;18.65;13.15;;;;;;;-1.75;70.05;101654.63;4973797;28;20057;-63
2022/03/10 03:07:22;;;;;;;;;;;;;;;-1.95;70.36;101661.94;4974243;28;20412;-63
2022/03/10 03:10:25;;;;;;;18.98;12.77;;;;;;;-2.04;70.87;101663.50;4973615;28;20457;-63
2022/03/10 03:13:28;;;;;;;17.42;12.07;;;;;;;-2.00;70.15;101660.16;4973672;28;20046;-63
2022/03/10 03:16:32;;;;;;;16.80;12.52;;;;;;;-2.04;70.66;101664.38;4973655;28;20567;-63
2022/03/10 03:19:35;;;;;;;19.67;11.65;;;;;;;-1.87;69.46;101668.09;4973434;28;20110;-63
2022/03/10 03:22:38;;;;;;;18.05;12.00;;;;;;;-1.71;69.31;101664.06;4972987;28;20621;-63
2022/03/10 03:25:42;;;;;;;18.27;12.40;;;;;;;-1.59;68.70;101662.56;4973719;28;20053;-63
2022/03/10 03:28:46;;;;;;;20.45;12.10;;;;;;;-1.94;69.77;101662.84;4973406;28;20053;-63
2022/03/10 03:31:49;;;;;;;17.47;12.37;;;;;;;-1.92;69.70;101671.41;4973208;28;20058;-63
2022/03/10 03:34:52;;;;;;;17.58;12.43;;;;;;;-1.92;69.59;101671.41;4973266;28;20072;-63
2022/03/10 03:37:56;;;;;;;21.05;13.55;;;;;;;-2.07;70.35;101663.44;4973158;28;20045;-63
2022/03/10 03:41:00;;;;;;;17.63;12.45;;;;;;;-1.99;70.23;101664.44;4973456;28;20097;-63
2022/03/10 03:44:04;;;;;;;16.37;11.83;;;;;;;-1.89;69.70;101661.19;4972830;28;20077;-63
2022/03/10 03:47:07;;;;;;;;;;;;;;;-1.93;69.89;101662.00;4973642;28;20053;-63
2022/03/10 03:50:12;;;;;;;17.08;12.95;;;;;;;-1.81;69.26;101664.78;4972896;28;19924;-63
2022/03/10 03:53:15;;;;;;;17.10;12.30;;;;;;;-2.07;69.80;101666.88;4972894;28;20476;-63
2022/03/10 03:56:18;;;;;;;16.88;12.23;;;;;;;-2.14;70.13;101672.72;4972919;28;20046;-63
2022/03/10 03:59:21;;;;;;;19.48;12.90;;;;;;;-2.00;69.78;101675.56;4972852;28;20131;-63
2022/03/10 04:02:25;;;;;;;17.40;12.38;;;;;;;-1.92;69.99;101677.38;4972917;28;20046;-63
2022/03/10 04:05:28;;;;;;;19.75;12.27;;;;;;;-1.98;69.87;101676.41;4972861;28;20046;-63
2022/03/10 04:08:32;;;;;;;20.63;14.27;;;;;;;-2.17;70.05;101677.78;4972697;28;20445;-63
2022/03/10 04:11:36;;;;;;;20.58;13.32;;;;;;;-2.38;70.65;101681.69;4973063;28;20697;-63
2022/03/10 04:14:39;;;;;;;22.07;13.67;;;;;;;-2.40;71.44;101680.78;4972877;28;20077;-63
2022/03/10 04:17:43;;;;;;;20.33;14.00;;;;;;;-2.29;71.36;101678.44;4972843;28;20050;-63
2022/03/10 04:20:47;;;;;;;;;;;;;;;-2.09;70.76;101677.94;4973343;28;20058;-63
2022/03/10 04:23:50;;;;;;;18.60;13.50;;;;;;;-2.21;70.13;101681.13;4972727;28;19924;-62
2022/03/10 04:26:54;;;;;;;18.02;13.35;;;;;;;-2.27;69.84;101687.00;4972696;28;20631;-62
2022/03/10 04:29:57;;;;;;;18.05;11.63;;;;;;;-2.22;69.85;101685.41;4972775;28;20436;-63
2022/03/10 04:33:00;;;;;;;;;;;;;;;-2.25;70.20;101680.22;4972998;28;20065;-63
2022/03/10 04:36:04;;;;;;;18.43;12.50;;;;;;;-2.21;69.71;101674.31;4976554;28;19928;-63
2022/03/10 04:39:07;;;;;;;21.83;14.18;;;;;;;-2.54;71.50;101681.38;4976508;28;20137;-63
2022/03/10 04:42:10;;;;;;;18.75;13.73;;;;;;;-2.58;71.74;101676.19;4976598;28;20049;-63
2022/03/10 04:45:14;;;;;;;18.50;13.20;;;;;;;-2.48;71.44;101681.50;4975917;28;20117;-63
2022/03/10 04:48:17;;;;;;;20.65;12.95;;;;;;;-2.39;71.44;101681.66;4994342;28;20049;-63
2022/03/10 04:51:20;;;;;;;20.65;13.63;;;;;;;-2.57;71.91;101687.28;4995278;28;20424;-63
2022/03/10 04:54:24;;;;;;;18.43;13.43;;;;;;;-2.63;71.97;101690.56;4975749;28;20102;-63
2022/03/10 04:57:27;;;;;;;22.27;12.27;;;;;;;-2.55;71.54;101688.19;4996188;28;20095;-63
2022/03/10 05:00:31;;;;;;;18.93;12.73;;;;;;;-2.69;72.08;101693.00;4994397;28;20085;-63
2022/03/10 05:03:34;;;;;;;19.13;12.90;;;;;;;-2.49;71.39;101689.97;4995066;28;20621;-63
2022/03/10 05:06:37;;;;;;;;;;;;;;;-2.44;71.16;101702.06;4976328;28;20058;-63
2022/03/10 05:09:40;;;;;;;22.30;12.80;;;;;;;-2.62;71.90;101700.00;4975601;28;20307;-63
2022/03/10 05:12:48;;;;;;;17.92;13.25;;;;;;;-2.50;71.42;101699.38;4975414;28;20045;-63
2022/03/10 05:15:51;;;;;;;20.30;13.27;;;;;;;-2.59;71.62;101704.31;4975756;28;20089;-63
2022/03/10 05:18:55;;;;;;;18.73;14.05;;;;;;;-2.67;71.49;101700.72;4973681;28;20558;-64
2022/03/10 05:21:58;;;;;;;22.73;15.05;;;;;;;-2.60;71.27;101703.44;4972186;28;20070;-63
2022/03/10 05:25:03;;;;;;;31.30;20.77;;;;;;;-2.83;71.97;101708.09;4972685;28;20106;-63
2022/03/10 05:28:14;;;;;;;39.63;24.73;;;;;;;-2.94;72.54;101716.34;4970798;28;20050;-63
2022/03/10 05:31:17;;;;;;;28.37;18.10;;;;;;;-2.79;72.58;101716.69;4971810;28;20085;-63
2022/03/10 05:34:20;;;;;;;19.67;13.88;;;;;;;-2.93;72.99;101713.84;4971581;28;20054;-63
2022/03/10 05:37:24;;;;;;;20.88;13.95;;;;;;;-2.79;72.70;101715.84;4971777;28;20519;-63
2022/03/10 05:40:28;;;;;;;18.70;13.47;;;;;;;-2.87;72.72;101718.22;4971403;28;20163;-63
2022/03/10 05:43:33;;;;;;;19.00;13.70;;;;;;;-2.81;72.46;101713.22;4960362;28;20049;-63
2022/03/10 05:46:36;;;;;;;22.27;14.70;;;;;;;-2.60;71.54;101708.56;4972083;28;20058;-63
2022/03/10 05:49:39;;;;;;;19.52;14.30;;;;;;;-2.52;71.21;101705.28;4971809;28;20116;-63
2022/03/10 05:52:45;;;;;;;21.83;14.70;;;;;;;-2.81;71.88;101720.91;4971106;28;20046;-63
2022/03/10 05:55:50;;;;;;;31.77;16.60;;;;;;;-2.87;71.80;101721.66;4971156;28;20136;-63
2022/03/10 05:58:53;;;;;;;29.23;15.27;;;;;;;-2.74;71.61;101721.91;4971501;28;20101;-63
2022/03/10 06:01:56;;;;;;;22.25;13.80;;;;;;;-2.88;72.18;101731.84;4972074;28;20061;-63
2022/03/10 06:05:00;;;;;;;;;;;;;;;-2.64;71.38;101729.81;4972504;28;20062;-63
2022/03/10 06:08:04;;;;;;;20.10;13.65;;;;;;;-2.83;71.67;101736.25;4971134;28;19968;-63
2022/03/10 06:11:09;;;;;;;19.73;14.03;;;;;;;-2.79;71.72;101744.84;4970444;28;20101;-63
2022/03/10 06:14:12;;;;;;;23.17;13.80;;;;;;;-2.81;71.54;101752.50;4971317;28;20454;-63
2022/03/10 06:17:16;;;;;;;18.23;13.65;;;;;;;-2.82;71.80;101752.47;4971388;28;20089;-63
2022/03/10 06:20:19;;;;;;;20.60;13.85;;;;;;;-2.78;72.14;101754.25;4974713;28;20049;-63
2022/03/10 06:23:23;;;;;;;19.33;13.45;;;;;;;-2.67;71.76;101757.91;4989444;28;20100;-63
2022/03/10 06:26:26;;;;;;;19.55;12.60;;;;;;;-2.53;71.45;101754.78;4986427;28;20069;-63
2022/03/10 06:29:29;;;;;;;20.23;13.52;;;;;;;-2.70;71.45;101759.56;4970963;28;20041;-63
2022/03/10 06:32:33;;;;;;;21.58;13.35;;;;;;;-2.70;72.06;101760.41;4990577;28;20088;-64
2022/03/10 06:35:36;;;;;;;21.50;13.60;;;;;;;-2.70;71.83;101768.09;4990216;28;20065;-64
2022/03/10 06:38:39;;;;;;;20.13;14.20;;;;;;;-2.68;71.96;101765.56;4990186;28;20041;-63
2022/03/10 06:41:43;;;;;;;21.65;14.48;;;;;;;-2.65;72.12;101771.63;4990700;28;20133;-63
2022/03/10 06:44:46;;;;;;;22.05;13.80;;;;;;;-2.57;71.51;101757.28;4993938;28;20471;-63
2022/03/10 06:47:50;;;;;;;21.35;14.70;;;;;;;-2.75;72.06;101766.25;5009478;28;20148;-63
2022/03/10 06:50:53;;;;;;;24.70;15.95;;;;;;;-2.86;72.68;101764.31;5009220;28;20419;-63
2022/03/10 06:53:57;;;;;;;;;;;;;;;-2.86;72.82;101761.78;5009703;28;20049;-63
2022/03/10 06:57:00;;;;;;;22.65;14.40;;;;;;;-2.79;73.10;101765.31;5009008;28;19920;-63
2022/03/10 07:00:05;;;;;;;22.02;16.13;;;;;;;-2.76;72.86;101757.72;5009878;28;20052;-63
2022/03/10 07:03:08;;;;;;;22.73;14.27;;;;;;;-2.52;72.69;101759.97;5008825;28;20081;-63
2022/03/10 07:06:11;;;;;;;21.60;14.57;;;;;;;-2.43;72.66;101757.56;5009128;28;20446;-63
2022/03/10 07:09:15;;;;;;;;;;;;;;;-2.46;72.32;101761.75;5009371;28;20124;-63
2022/03/10 07:12:19;;;;;;;18.23;13.27;;;;;;;-2.45;72.34;101758.38;5009135;28;19993;-63
2022/03/10 07:15:22;;;;;;;22.50;13.45;;;;;;;-2.39;72.65;101761.06;5008907;28;20045;-63
2022/03/10 07:18:25;;;;;;;22.65;13.93;;;;;;;-2.39;72.45;101763.63;5009050;28;20554;-63
2022/03/10 07:21:29;;;;;;;;;;;;;;;-2.32;72.75;101772.31;5009538;28;20761;-63
2022/03/10 07:24:32;;;;;;;19.97;12.93;;;;;;;-2.14;71.58;101762.41;5008447;28;19963;-63
2022/03/10 07:27:35;;;;;;;20.25;14.10;;;;;;;-1.95;71.80;101766.19;5008058;28;20052;-63
2022/03/10 07:30:38;;;;;;;;;;;;;;;-1.94;71.82;101773.06;5009023;28;20127;-63
2022/03/10 07:33:43;;;;;;;18.83;13.63;;;;;;;-1.91;71.95;101770.56;4992443;28;19971;-63
2022/03/10 07:36:46;;;;;;;17.20;12.53;;;;;;;-1.84;72.03;101779.22;4989625;28;20141;-63
2022/03/10 07:39:50;;;;;;;18.42;13.52;;;;;;;-1.80;71.95;101771.59;4989168;28;20177;-63
2022/03/10 07:42:53;;;;;;;20.20;14.20;;;;;;;-1.76;72.27;101765.69;4987993;28;20040;-63
2022/03/10 07:45:57;;;;;;;22.00;13.88;;;;;;;-1.60;71.78;101763.41;4986787;28;20266;-64
2022/03/10 07:49:00;;;;;;;25.75;13.65;;;;;;;-1.55;71.40;101765.22;4958622;28;20130;-65
2022/03/10 07:52:04;;;;;;;21.90;14.20;;;;;;;-1.40;71.41;101764.63;4949266;28;20051;-63
2022/03/10 07:55:08;;;;;;;24.93;14.13;;;;;;;-1.25;70.91;101764.84;4964673;28;20140;-63
2022/03/10 07:58:12;;;;;;;21.50;14.67;;;;;;;-1.14;70.49;101767.59;4968286;28;20126;-63
2022/03/10 08:01:15;;;;;;;20.35;14.88;;;;;;;-0.99;70.48;101755.00;4968108;28;20064;-64
2022/03/10 08:04:19;;;;;;;19.08;14.75;;;;;;;-0.94;69.94;101755.06;4967729;28;20759;-63
2022/03/10 08:07:22;;;;;;;18.93;13.20;;;;;;;-0.93;70.15;101751.66;4967395;28;20452;-63
2022/03/10 08:10:26;;;;;;;20.38;14.88;;;;;;;-0.73;69.10;101752.81;4968291;28;20065;-63
2022/03/10 08:13:31;;;;;;;23.80;15.30;;;;;;;-0.65;68.93;101749.47;4968330;28;20436;-63
2022/03/10 08:16:34;;;;;;;24.25;15.70;;;;;;;-0.62;68.93;101755.50;4983229;28;20049;-63
2022/03/10 08:19:38;;;;;;;22.30;15.55;;;;;;;-0.54;69.22;101743.66;4987472;28;20053;-63
2022/03/10 08:22:41;;;;;;;23.67;15.15;;;;;;;-0.38;69.12;101748.94;4987091;28;20048;-63
2022/03/10 08:25:45;;;;;;;22.48;15.38;;;;;;;-0.33;68.89;101739.59;4986991;28;20061;-64
2022/03/10 08:28:51;;;;;;;27.77;17.23;;;;;;;-0.21;68.84;101736.31;4987622;28;20101;-63
2022/03/10 08:31:54;;;;;;;22.40;14.95;;;;;;;-0.04;68.54;101730.50;4987785;28;20182;-63
2022/03/10 08:34:57;;;;;;;20.88;14.93;;;;;;;0.06;68.04;101726.31;4972913;28;20061;-63
2022/03/10 08:38:01;;;;;;;23.02;15.30;;;;;;;0.23;67.63;101719.66;4986731;28;20052;-63
2022/03/10 08:41:04;;;;;;;28.17;17.30;;;;;;;0.34;67.12;101724.88;4987344;28;20049;-63
2022/03/10 08:44:07;;;;;;;34.92;21.83;;;;;;;0.39;67.66;101724.94;4986357;28;20416;-63
2022/03/10 08:47:11;;;;;;;37.47;23.58;;;;;;;0.36;67.70;101715.47;4986961;28;20053;-63
2022/03/10 08:50:14;;;;;;;26.90;15.98;;;;;;;0.53;68.39;101712.19;4974656;28;20126;-64
2022/03/10 08:53:18;;;;;;;28.63;18.17;;;;;;;0.71;67.99;101721.75;4964889;28;20098;-63
2022/03/10 08:56:21;;;;;;;22.73;16.52;;;;;;;0.89;66.88;101719.28;4968893;28;20041;-63
2022/03/10 08:59:24;;;;;;;;;;;;;;;1.08;66.90;101712.53;4968997;28;20053;-63
2022/03/10 09:02:28;;;;;;;20.95;14.25;;;;;;;1.35;65.97;101711.84;4967480;28;19924;-64
2022/03/10 09:05:34;;;;;;;19.55;14.40;;;;;;;1.60;64.32;101702.50;4968191;28;20062;-63
2022/03/10 09:08:38;;;;;;;21.83;14.13;;;;;;;1.75;63.32;101701.66;4968678;28;20049;-63
2022/03/10 09:11:42;;;;;;;17.58;12.15;;;;;;;1.87;62.67;101696.56;4968890;28;20428;-63
2022/03/10 09:14:45;;;;;;;;;;;;;;;1.96;61.95;101696.56;4969717;28;20092;-63
2022/03/10 09:17:48;;;;;;;18.67;12.93;;;;;;;2.23;61.76;101681.97;4987734;28;19972;-63
2022/03/10 09:20:51;;;;;;;22.23;13.88;;;;;;;2.39;60.95;101680.25;4989830;28;20165;-64
2022/03/10 09:23:54;;;;;;;20.42;12.95;;;;;;;2.52;60.02;101672.53;4991430;28;20037;-64
2022/03/10 09:26:58;;;;;;;19.55;13.57;;;;;;;2.65;59.54;101667.31;4991929;28;20053;-63
2022/03/10 09:30:02;;;;;;;20.38;13.27;;;;;;;2.59;58.06;101668.22;4991235;28;20111;-63
2022/03/10 09:33:06;;;;;;;24.63;11.85;;;;;;;2.88;58.35;101664.72;4991592;28;20044;-63
2022/03/10 09:36:09;;;;;;;19.55;12.65;;;;;;;2.97;58.17;101655.22;4982250;28;20057;-63
2022/03/10 09:39:13;;;;;;;17.45;12.60;;;;;;;3.23;57.57;101651.69;4990593;28;20562;-64
2022/03/10 09:42:20;;;;;;;19.75;13.57;;;;;;;3.46;56.99;101652.44;4978937;28;20042;-64
2022/03/10 09:45:26;;;;;;;21.33;13.43;;;;;;;3.68;56.03;101644.59;4990844;28;20582;-63
2022/03/10 09:48:30;;;;;;;19.25;12.57;;;;;;;3.85;55.58;101642.75;4979044;28;20069;-63
2022/03/10 09:51:33;;;;;;;19.83;12.77;;;;;;;3.86;55.29;101635.81;4991276;28;20444;-64
2022/03/10 09:54:37;;;;;;;;;;;;;;;4.10;55.29;101642.56;4991370;28;20142;-63
2022/03/10 09:57:42;;;;;;;23.77;13.20;;;;;;;4.40;54.46;101631.09;4989795;28;20393;-64
2022/03/10 10:00:46;;;;;;;19.50;13.13;;;;;;;4.49;53.29;101619.78;4990039;28;20142;-64
2022/03/10 10:03:49;;;;;;;22.30;13.07;;;;;;;4.49;53.80;101627.56;4990659;28;20118;-64
2022/03/10 10:07:10;;;;;;;;;;;;;;;4.54;52.94;101615.44;4991463;28;20053;-65
2022/03/10 10:10:27;;;;;;;16.35;11.38;;;;;;;4.78;53.46;101612.56;4990508;28;20018;-64
2022/03/10 10:18:02;;;;;;;17.92;13.80;;;;;;;5.33;52.05;101606.75;4970974;28;20054;-64
2022/03/10 10:21:08;;;;;;;16.67;12.85;;;;;;;5.46;51.96;101610.03;4971203;28;20134;-64
2022/03/10 10:24:17;;;;;;;24.17;13.82;;;;;;;5.73;51.67;101606.16;4970507;28;20050;-64
2022/03/10 10:27:23;;;;;;;18.48;12.65;;;;;;;6.06;50.30;101606.53;4970891;28;20476;-64
2022/03/10 10:30:26;;;;;;;20.35;11.88;;;;;;;6.14;50.88;101604.69;4970876;28;20049;-64
2022/03/10 10:33:33;;;;;;;19.00;12.45;;;;;;;6.52;49.60;101600.56;4971045;28;20045;-64
2022/03/10 10:36:38;;;;;;;21.65;13.38;;;;;;;6.60;49.94;101596.06;4993157;28;20076;-64
2022/03/10 10:39:52;;;;;;;18.00;12.73;;;;;;;6.44;50.30;101600.69;5009989;28;20111;-64
2022/03/10 10:42:56;;;;;;;19.85;13.07;;;;;;;6.71;50.13;101591.56;5010271;28;20530;-64
2022/03/10 10:45:59;;;;;;;18.65;13.65;;;;;;;7.06;49.35;101595.19;5010144;28;20053;-64
2022/03/10 10:49:17;;;;;;;21.85;12.73;;;;;;;7.19;49.28;101594.03;5009516;28;20107;-64
2022/03/10 10:52:21;;;;;;;24.65;13.73;;;;;;;7.22;49.11;101593.13;5009333;28;20057;-64
2022/03/10 10:55:41;;;;;;;20.02;12.60;;;;;;;7.19;49.86;101583.63;5008795;28;20084;-64
2022/03/10 10:58:47;;;;;;;21.92;13.65;;;;;;;7.39;49.36;101577.16;5008496;28;20036;-65
2022/03/10 11:01:51;;;;;;;21.55;14.30;;;;;;;7.80;48.12;101572.75;5001573;28;20096;-64
2022/03/10 11:04:54;;;;;;;22.85;13.40;;;;;;;7.62;48.09;101561.84;4990125;28;20112;-64
2022/03/10 11:07:59;;;;;;;19.05;13.57;;;;;;;7.85;48.31;101555.28;4988576;28;20044;-63
2022/03/10 11:11:04;;;;;;;24.20;12.68;;;;;;;7.83;48.47;101552.69;4988301;28;20455;-62
2022/03/10 11:14:08;;;;;;;21.38;13.02;;;;;;;7.89;47.56;101549.09;4968829;28;20045;-62
2022/03/10 11:17:14;;;;;;;26.25;12.43;;;;;;;8.12;46.73;101544.13;4969994;28;20409;-66
2022/03/10 11:20:17;;;;;;;18.17;11.63;;;;;;;8.11;48.27;101531.16;4988570;28;20045;-62
2022/03/10 11:23:42;;;;;;;18.77;12.15;;;;;;;8.63;47.19;101523.72;4990398;28;20394;-62
2022/03/10 11:26:52;;;;;;;19.50;11.85;;;;;;;8.68;45.37;101524.41;4978907;28;20412;-62
2022/03/10 11:29:59;;;;;;;21.77;12.13;;;;;;;8.66;46.00;101514.06;4992397;28;20061;-62
2022/03/10 11:33:16;;;;;;;16.15;11.70;;;;;;;8.75;47.04;101512.94;4992404;28;20150;-62
2022/03/10 11:36:24;;;;;;;20.58;11.60;;;;;;;9.29;44.92;101506.97;4993839;28;20036;-62
2022/03/10 11:39:29;;;;;;;18.95;12.27;;;;;;;9.24;45.67;101501.03;4996098;28;20121;-62
2022/03/10 11:42:33;;;;;;;17.50;11.35;;;;;;;9.25;45.37;101498.38;4991950;28;20088;-62
2022/03/10 11:45:37;;;;;;;14.80;11.25;;;;;;;9.43;45.38;101494.31;4975553;28;20113;-62
2022/03/10 11:48:42;;;;;;;18.90;10.57;;;;;;;9.90;42.78;101496.28;4972510;28;20471;-62
2022/03/10 11:51:55;;;;;;;19.88;9.60;;;;;;;9.81;43.56;101491.38;4972582;28;20599;-62
2022/03/10 11:55:12;;;;;;;11.50;8.97;;;;;;;10.07;42.08;101480.88;4972621;28;20507;-62
2022/03/10 11:58:17;;;;;;;13.02;7.80;;;;;;;10.30;38.35;101474.84;4972488;28;20277;-62
2022/03/10 12:01:20;;;;;;;6.72;4.53;;;;;;;10.30;36.25;101469.63;4972731;28;20077;-62
2022/03/10 12:04:40;;;;;;;12.13;7.65;;;;;;;10.64;39.56;101471.88;4971962;28;20585;-62
2022/03/10 12:07:50;;;;;;;13.18;6.82;;;;;;;10.76;36.89;101465.31;4972022;28;20082;-62
2022/03/10 12:10:53;;;;;;;7.97;4.18;;;;;;;11.36;35.68;101457.75;4971919;28;20416;-62
2022/03/10 12:14:27;;;;;;;7.68;3.63;;;;;;;11.11;33.08;101457.88;4972546;28;20054;-62
2022/03/10 12:17:42;;;;;;;3.30;1.85;;;;;;;11.15;32.68;101448.97;4953369;28;20117;-62
2022/03/10 12:20:48;;;;;;;3.95;2.13;;;;;;;11.08;32.12;101437.06;4951994;28;20190;-62
2022/03/10 12:24:04;;;;;;;5.45;1.65;;;;;;;11.49;31.54;101434.53;4952964;28;20101;-62
2022/03/10 12:27:07;;;;;;;8.82;2.05;;;;;;;11.70;31.15;101427.53;4953140;28;20046;-62
2022/03/10 12:30:12;;;;;;;;;;;;;;;11.98;31.14;101425.44;4953903;28;20062;-62
2022/03/10 12:33:15;;;;;;;3.03;1.83;;;;;;;12.46;30.55;101420.69;4952799;28;19949;-62
2022/03/10 12:36:26;;;;;;;4.25;2.05;;;;;;;12.60;29.25;101406.94;4953421;28;20061;-62
2022/03/10 12:39:32;;;;;;;7.53;2.10;;;;;;;12.62;28.18;101420.84;4979536;28;20045;-62
2022/03/10 12:42:37;;;;;;;3.50;1.98;;;;;;;12.85;28.98;101411.88;4972184;28;20089;-62
2022/03/10 12:45:46;;;;;;;3.70;2.03;;;;;;;13.00;28.22;101400.66;4972159;28;20131;-62
2022/03/10 12:49:28;;;;;;;3.33;1.80;;;;;;;13.10;28.16;101399.28;4971895;28;20109;-62
2022/03/10 12:52:40;;;;;;;3.40;2.33;;;;;;;13.36;28.07;101391.91;4971581;28;20098;-63
2022/03/10 12:55:44;;;;;;;4.13;1.95;;;;;;;13.70;28.54;101388.44;4973520;28;20073;-63
2022/03/10 12:58:50;;;;;;;3.25;2.20;;;;;;;13.90;27.04;101387.38;4975140;28;20053;-63
2022/03/10 13:01:55;;;;;;;3.05;1.80;;;;;;;14.47;28.81;101382.56;4975585;28;20045;-63
2022/03/10 13:05:02;;;;;;;3.97;2.13;;;;;;;14.51;26.57;101372.75;4975696;28;20045;-64
2022/03/10 13:08:09;;;;;;;3.40;2.30;;;;;;;14.54;26.07;101364.69;4975798;28;20106;-63
2022/03/10 13:11:18;;;;;;;3.72;2.33;;;;;;;15.19;25.05;101370.66;4975445;28;20046;-63
2022/03/10 13:14:22;;;;;;;3.78;2.15;;;;;;;15.49;24.02;101359.22;4975812;28;20082;-63
2022/03/10 13:17:36;;;;;;;4.07;2.55;;;;;;;16.69;22.81;101363.25;4955874;29;20512;-63
2022/03/10 13:20:40;;;;;;;4.78;2.55;;;;;;;18.20;21.29;101346.88;4955230;29;20117;-64
2022/03/10 13:23:44;;;;;;;4.45;2.95;;;;;;;21.27;18.86;101344.31;4956322;29;20507;-64
2022/03/10 13:27:00;;;;;;;4.20;3.13;;;;;;;24.07;16.36;101326.16;4955942;29;20077;-64
2022/03/10 13:30:05;;;;;;;4.88;3.35;;;;;;;23.80;15.36;101325.16;4956149;29;20142;-64
2022/03/10 13:33:10;;;;;;;5.25;4.00;;;;;;;26.77;13.81;101320.81;4955850;29;20117;-65
2022/03/10 13:36:14;;;;;;;8.15;4.10;;;;;;;26.36;12.97;101311.84;4954978;29;20135;-65
2022/03/10 13:39:27;;;;;;;4.40;4.00;;;;;;;29.07;12.18;101310.00;4962574;28;20537;-65
2022/03/10 13:42:32;;;;;;;6.43;4.33;;;;;;;28.97;11.09;101311.09;4974564;28;20041;-65
2022/03/10 13:45:42;;;;;;;5.50;4.80;;;;;;;29.40;10.63;101305.97;4962778;28;20644;-65
2022/03/10 13:48:49;;;;;;;5.40;4.90;;;;;;;28.74;10.97;101299.50;4974898;28;20097;-65
2022/03/10 13:51:52;;;;;;;7.07;4.95;;;;;;;30.67;10.55;101294.88;4974607;28;20042;-65
2022/03/10 13:54:56;;;;;;;6.40;4.65;;;;;;;30.96;10.04;101301.19;4974575;28;20046;-65
2022/03/10 13:58:01;;;;;;;6.97;6.32;;;;;;;28.40;10.89;101294.53;4962601;28;20054;-65
2022/03/10 14:01:07;;;;;;;5.57;4.85;;;;;;;29.69;11.40;101293.56;4965687;28;20423;-65
2022/03/10 14:04:15;;;;;;;9.65;6.30;;;;;;;29.82;11.13;101282.09;4970481;28;20109;-65
2022/03/10 14:07:18;;;;;;;16.77;15.13;;;;;;;25.65;12.19;101287.06;4969933;28;20413;-66
2022/03/10 14:10:29;;;;;;;7.88;6.22;;;;;;;27.27;12.49;101276.00;4968737;28;20064;-66
2022/03/10 14:13:35;;;;;;;5.88;4.95;;;;;;;27.06;12.94;101274.66;4970669;28;20101;-65
2022/03/10 14:16:50;;;;;;;6.95;4.43;;;;;;;25.57;13.11;101272.81;4970409;28;20516;-66
2022/03/10 14:20:03;;;;;;;5.70;4.30;;;;;;;25.91;13.55;101271.00;4970655;28;20049;-65
2022/03/10 14:23:07;;;;;;;6.75;4.53;;;;;;;26.51;12.89;101261.09;4951441;29;20050;-65
2022/03/10 14:26:16;;;;;;;3.60;3.10;;;;;;;26.67;11.77;101258.41;4953492;28;20125;-65
2022/03/10 14:29:20;;;;;;;5.72;3.72;;;;;;;27.29;11.76;101255.19;4969851;28;20420;-65